createdAt,value
2018-12-27T00:02:27.430Z,102515.70
2018-12-27T00:04:55.741Z,102517.36
2018-12-27T00:07:24.037Z,102516.55
2018-12-27T00:09:52.364Z,102513.25
2018-12-27T00:12:20.676Z,102508.83
2018-12-27T00:14:49.012Z,102508.83
2018-12-27T00:17:17.326Z,102509.66
2018-12-27T00:20:05.091Z,102505.81
2018-12-27T00:22:33.358Z,102514.89
2018-12-27T00:25:01.669Z,102508.00
2018-12-27T00:27:29.960Z,102503.32
2018-12-27T00:30:38.383Z,102504.72
2018-12-27T00:33:07.041Z,102498.38
2018-12-27T00:35:35.695Z,102498.37
2018-12-27T00:38:04.319Z,102496.19
2018-12-27T00:40:32.975Z,102493.97
2018-12-27T00:43:01.605Z,102501.14
2018-12-27T00:45:30.250Z,102493.42
2018-12-27T00:47:58.886Z,102491.79
2018-12-27T00:50:27.527Z,102492.88
2018-12-27T00:52:56.179Z,102487.37
2018-12-27T00:55:24.820Z,102485.45
2018-12-27T00:57:53.453Z,102485.72
2018-12-27T01:00:22.124Z,102481.84
2018-12-27T01:02:50.751Z,102483.77
2018-12-27T01:05:19.399Z,102485.98
2018-12-27T01:07:48.128Z,102487.61
2018-12-27T01:10:16.777Z,102489.56
2018-12-27T01:12:45.431Z,102481.30
2018-12-27T01:15:14.073Z,102487.89
2018-12-27T01:17:42.730Z,102481.84
2018-12-27T01:20:11.472Z,102480.74
2018-12-27T01:22:40.092Z,102481.87
2018-12-27T01:25:08.726Z,102481.58
2018-12-27T01:27:37.396Z,102476.34
2018-12-27T01:30:06.032Z,102476.64
2018-12-27T01:32:34.672Z,102474.42
2018-12-27T01:35:03.331Z,102471.95
2018-12-27T01:37:31.977Z,102476.91
2018-12-27T01:40:00.608Z,102468.93
2018-12-27T01:42:29.256Z,102465.37
2018-12-27T01:44:57.877Z,102455.98
2018-12-27T01:47:26.546Z,102454.88
2018-12-27T01:49:55.199Z,102453.80
2018-12-27T01:52:23.843Z,102452.41
2018-12-27T01:54:52.471Z,102452.96
2018-12-27T01:57:21.141Z,102448.53
2018-12-27T01:59:49.772Z,102444.71
2018-12-27T02:02:18.417Z,102444.16
2018-12-27T02:04:47.051Z,102443.06
2018-12-27T02:07:15.702Z,102437.84
2018-12-27T02:09:44.332Z,102433.42
2018-12-27T02:12:12.990Z,102431.77
2018-12-27T02:14:41.616Z,102429.30
2018-12-27T02:17:10.264Z,102433.72
2018-12-27T02:19:38.895Z,102431.51
2018-12-27T02:22:07.540Z,102433.97
2018-12-27T02:24:36.200Z,102430.70
2018-12-27T02:27:04.869Z,102433.17
2018-12-27T02:29:33.500Z,102427.66
2018-12-27T02:32:02.158Z,102426.02
2018-12-27T02:34:30.803Z,102417.47
2018-12-27T02:36:59.470Z,102424.34
2018-12-27T02:39:28.099Z,102419.67
2018-12-27T02:41:56.738Z,102426.58
2018-12-27T02:44:25.384Z,102420.23
2018-12-27T02:46:54.014Z,102418.05
2018-12-27T02:49:22.731Z,102413.92
2018-12-27T02:51:51.377Z,102413.08
2018-12-27T02:54:20.041Z,102408.11
2018-12-27T02:56:48.672Z,102398.73
2018-12-27T02:59:17.311Z,102404.82
2018-12-27T03:01:45.946Z,102403.41
2018-12-27T03:04:14.619Z,102403.14
2018-12-27T03:06:43.273Z,102397.09
2018-12-27T03:09:11.943Z,102400.39
2018-12-27T03:11:40.571Z,102397.63
2018-12-27T03:14:09.223Z,102401.77
2018-12-27T03:16:37.852Z,102399.30
2018-12-27T03:19:06.496Z,102394.05
2018-12-27T03:21:35.119Z,102388.00
2018-12-27T03:24:03.794Z,102386.91
2018-12-27T03:26:32.424Z,102385.25
2018-12-27T03:29:01.078Z,102387.46
2018-12-27T03:31:29.711Z,102392.69
2018-12-27T03:33:58.372Z,102389.93
2018-12-27T03:36:27.029Z,102384.70
2018-12-27T03:38:55.677Z,102383.34
2018-12-27T03:41:24.309Z,102371.78
2018-12-27T03:43:52.960Z,102376.99
2018-12-27T03:46:21.610Z,102372.06
2018-12-27T03:48:50.250Z,102369.58
2018-12-27T03:51:18.911Z,102374.25
2018-12-27T03:53:47.562Z,102369.29
2018-12-27T03:56:16.213Z,102366.82
2018-12-27T03:58:44.843Z,102374.81
2018-12-27T04:01:13.484Z,102377.02
2018-12-27T04:03:42.142Z,102367.94
2018-12-27T04:06:10.789Z,102362.70
2018-12-27T04:08:39.441Z,102372.05
2018-12-27T04:11:08.087Z,102363.80
2018-12-27T04:13:36.741Z,102359.12
2018-12-27T04:16:05.046Z,102357.19
2018-12-27T04:18:33.352Z,102354.16
2018-12-27T04:21:01.644Z,102353.33
2018-12-27T04:23:29.929Z,102350.88
2018-12-27T04:25:58.241Z,102349.23
2018-12-27T04:28:26.537Z,102356.10
2018-12-27T04:30:54.842Z,102348.94
2018-12-27T04:33:23.137Z,102348.67
2018-12-27T04:35:51.452Z,102350.05
2018-12-27T04:38:19.752Z,102345.66
2018-12-27T04:40:48.058Z,102343.16
2018-12-27T04:43:16.351Z,102338.78
2018-12-27T04:45:44.663Z,102351.13
2018-12-27T04:48:12.956Z,102342.08
2018-12-27T04:50:41.263Z,102343.17
2018-12-27T04:53:09.564Z,102337.95
2018-12-27T04:55:37.856Z,102342.62
2018-12-27T04:58:06.181Z,102344.28
2018-12-27T05:00:34.475Z,102337.95
2018-12-27T05:03:02.801Z,102343.17
2018-12-27T05:05:31.095Z,102333.83
2018-12-27T05:08:00.454Z,102334.66
2018-12-27T05:10:29.461Z,102329.41
2018-12-27T05:12:57.767Z,102333.55
2018-12-27T05:15:26.065Z,102325.30
2018-12-27T05:17:54.374Z,102326.94
2018-12-27T05:20:22.669Z,102327.78
2018-12-27T05:22:51.020Z,102323.11
2018-12-27T05:25:19.304Z,102331.91
2018-12-27T05:27:47.613Z,102329.42
2018-12-27T05:30:15.910Z,102327.51
2018-12-27T05:32:44.239Z,102334.38
2018-12-27T05:35:12.532Z,102335.76
2018-12-27T05:37:40.839Z,102337.39
2018-12-27T05:40:09.138Z,102344.81
2018-12-27T05:42:37.447Z,102347.02
2018-12-27T05:48:19.698Z,102347.58
2018-12-27T05:50:47.991Z,102351.42
2018-12-27T05:53:16.300Z,102350.31
2018-12-27T05:55:44.685Z,102351.44
2018-12-27T05:58:13.025Z,102350.03
2018-12-27T06:00:41.322Z,102350.03
2018-12-27T06:03:09.635Z,102350.31
2018-12-27T06:05:37.924Z,102349.49
2018-12-27T06:08:06.231Z,102354.17
2018-12-27T06:10:34.531Z,102350.87
2018-12-27T06:13:02.865Z,102346.48
2018-12-27T06:15:31.156Z,102344.81
2018-12-27T06:17:59.448Z,102348.95
2018-12-27T06:20:27.739Z,102347.30
2018-12-27T06:22:56.081Z,102355.00
2018-12-27T06:25:24.376Z,102350.59
2018-12-27T06:27:52.684Z,102357.20
2018-12-27T06:30:20.979Z,102355.28
2018-12-27T06:32:49.317Z,102357.48
2018-12-27T06:35:17.801Z,102353.91
2018-12-27T06:37:47.648Z,102364.89
2018-12-27T06:40:15.943Z,102369.58
2018-12-27T06:42:44.240Z,102359.95
2018-12-27T06:45:12.553Z,102360.78
2018-12-27T06:47:40.847Z,102354.99
2018-12-27T06:50:09.152Z,102356.38
2018-12-27T06:52:37.464Z,102354.72
2018-12-27T06:55:05.766Z,102351.98
2018-12-27T06:57:34.064Z,102347.56
2018-12-27T07:00:02.365Z,102348.39
2018-12-27T07:02:30.684Z,102343.18
2018-12-27T07:04:59.003Z,102343.18
2018-12-27T07:07:27.295Z,102331.06
2018-12-27T07:09:55.620Z,102335.20
2018-12-27T07:12:23.936Z,102321.44
2018-12-27T07:14:52.240Z,102320.34
2018-12-27T07:17:20.535Z,102320.88
2018-12-27T07:19:48.863Z,102323.64
2018-12-27T07:22:17.156Z,102321.72
2018-12-27T07:24:45.462Z,102322.81
2018-12-27T07:27:13.745Z,102322.00
2018-12-27T07:29:42.069Z,102320.33
2018-12-27T07:32:10.368Z,102314.01
2018-12-27T07:34:38.667Z,102320.05
2018-12-27T07:37:06.958Z,102315.09
2018-12-27T07:39:35.268Z,102312.09
2018-12-27T07:42:03.586Z,102309.05
2018-12-27T07:44:31.902Z,102311.80
2018-12-27T07:47:00.194Z,102314.84
2018-12-27T07:49:28.500Z,102320.34
2018-12-27T07:51:56.793Z,102314.55
2018-12-27T07:54:25.113Z,102312.35
2018-12-27T07:56:53.445Z,102315.39
2018-12-27T07:59:21.746Z,102318.95
2018-12-27T08:01:50.056Z,102314.28
2018-12-27T08:04:18.347Z,102319.49
2018-12-27T08:06:46.677Z,102317.03
2018-12-27T08:09:14.971Z,102315.39
2018-12-27T08:11:43.371Z,102313.19
2018-12-27T08:14:11.694Z,102324.19
2018-12-27T08:16:40.002Z,102329.96
2018-12-27T08:19:08.297Z,102318.69
2018-12-27T08:21:36.605Z,102318.68
2018-12-27T08:24:04.899Z,102319.25
2018-12-27T08:26:33.225Z,102312.92
2018-12-27T08:29:01.546Z,102312.66
2018-12-27T08:31:29.876Z,102320.07
2018-12-27T08:33:58.210Z,102320.08
2018-12-27T08:36:26.490Z,102323.36
2018-12-27T08:38:54.795Z,102315.11
2018-12-27T08:41:23.086Z,102314.85
2018-12-27T08:43:51.391Z,102319.23
2018-12-27T08:46:19.690Z,102323.65
2018-12-27T08:48:47.995Z,102317.86
2018-12-27T08:51:16.286Z,102311.27
2018-12-27T08:53:44.620Z,102318.13
2018-12-27T08:56:12.909Z,102318.70
2018-12-27T08:58:41.217Z,102314.58
2018-12-27T09:01:09.513Z,102322.80
2018-12-27T09:03:37.820Z,102323.09
2018-12-27T09:06:06.123Z,102326.13
2018-12-27T09:08:34.465Z,102320.36
2018-12-27T09:11:02.789Z,102322.01
2018-12-27T09:13:31.094Z,102317.59
2018-12-27T09:15:59.412Z,102314.29
2018-12-27T09:18:27.708Z,102319.25
2018-12-27T09:20:56.035Z,102320.08
2018-12-27T09:23:24.353Z,102311.00
2018-12-27T09:25:52.664Z,102312.92
2018-12-27T09:28:20.985Z,102307.69
2018-12-27T09:30:49.297Z,102310.72
2018-12-27T09:33:17.600Z,102308.52
2018-12-27T09:35:45.902Z,102313.19
2018-12-27T09:38:14.196Z,102316.77
2018-12-27T09:40:42.604Z,102324.19
2018-12-27T09:43:10.920Z,102319.52
2018-12-27T09:45:39.295Z,102309.61
2018-12-27T09:48:07.526Z,102313.45
2018-12-27T09:50:35.852Z,102310.43
2018-12-27T09:53:04.147Z,102300.27
2018-12-27T09:55:32.484Z,102303.30
2018-12-27T09:58:00.771Z,102299.44
2018-12-27T10:00:29.083Z,102299.44
2018-12-27T10:02:57.381Z,102307.69
2018-12-27T10:05:25.687Z,102309.35
2018-12-27T10:07:57.471Z,102307.13
2018-12-27T10:10:24.011Z,102314.01
2018-12-27T10:12:52.312Z,102315.09
2018-12-27T10:15:20.604Z,102320.89
2018-12-27T10:17:48.911Z,102316.22
2018-12-27T10:20:17.207Z,102317.31
2018-12-27T10:22:45.536Z,102319.23
2018-12-27T10:25:13.826Z,102313.45
2018-12-27T10:27:42.143Z,102315.39
2018-12-27T10:30:10.435Z,102305.22
2018-12-27T10:32:38.748Z,102314.02
2018-12-27T10:35:47.173Z,102301.36
2018-12-27T10:38:15.482Z,102303.28
2018-12-27T10:40:43.783Z,102306.03
2018-12-27T10:43:12.115Z,102305.19
2018-12-27T10:45:40.406Z,102310.16
2018-12-27T10:48:08.736Z,102305.46
2018-12-27T10:50:37.028Z,102300.25
2018-12-27T10:53:05.340Z,102293.37
2018-12-27T10:55:33.632Z,102296.95
2018-12-27T10:58:01.965Z,102301.07
2018-12-27T11:00:30.263Z,102295.29
2018-12-27T11:02:58.573Z,102295.00
2018-12-27T11:05:26.866Z,102293.63
2018-12-27T11:07:55.181Z,102290.63
2018-12-27T11:10:23.476Z,102285.67
2018-12-27T11:12:51.803Z,102288.97
2018-12-27T11:15:20.100Z,102283.17
2018-12-27T11:17:48.394Z,102283.17
2018-12-27T11:20:16.704Z,102281.80
2018-12-27T11:22:44.996Z,102280.68
2018-12-27T11:25:13.323Z,102279.30
2018-12-27T11:27:41.620Z,102275.98
2018-12-27T11:30:09.924Z,102277.90
2018-12-27T11:32:38.242Z,102271.88
2018-12-27T11:35:13.437Z,102270.80
2018-12-27T11:37:41.732Z,102276.27
2018-12-27T11:40:10.040Z,102279.02
2018-12-27T11:42:38.352Z,102274.31
2018-12-27T11:45:46.772Z,102279.28
2018-12-27T11:48:15.075Z,102271.56
2018-12-27T11:50:43.409Z,102277.36
2018-12-27T11:53:11.707Z,102272.94
2018-12-27T11:55:40.019Z,102264.42
2018-12-27T11:58:08.307Z,102268.01
2018-12-27T12:00:36.639Z,102268.84
2018-12-27T12:03:04.935Z,102263.34
2018-12-27T12:05:33.239Z,102259.75
2018-12-27T12:08:01.542Z,102256.71
2018-12-27T12:10:29.846Z,102252.33
2018-12-27T12:12:58.148Z,102254.79
2018-12-27T12:15:26.451Z,102254.79
2018-12-27T12:17:54.747Z,102251.78
2018-12-27T12:20:23.052Z,102249.58
2018-12-27T12:22:51.356Z,102252.33
2018-12-27T12:25:19.653Z,102251.49
2018-12-27T12:27:47.951Z,102251.49
2018-12-27T12:30:16.266Z,102249.58
2018-12-27T12:32:44.583Z,102252.03
2018-12-27T12:35:12.887Z,102249.28
2018-12-27T12:37:41.182Z,102247.36
2018-12-27T12:40:09.480Z,102247.36
2018-12-27T12:42:37.783Z,102254.50
2018-12-27T12:48:07.036Z,102247.62
2018-12-27T12:50:35.328Z,102242.66
2018-12-27T12:53:03.635Z,102252.03
2018-12-27T12:55:31.928Z,102253.41
2018-12-27T12:58:00.282Z,102250.41
2018-12-27T13:00:28.580Z,102250.41
2018-12-27T13:02:56.890Z,102251.75
2018-12-27T13:05:25.188Z,102253.67
2018-12-27T13:07:53.495Z,102247.33
2018-12-27T13:10:21.792Z,102248.99
2018-12-27T13:12:50.093Z,102252.58
2018-12-27T13:15:18.389Z,102235.77
2018-12-27T13:17:46.696Z,102241.53
2018-12-27T13:20:14.994Z,102241.23
2018-12-27T13:22:43.299Z,102236.28
2018-12-27T13:25:11.596Z,102236.02
2018-12-27T13:27:39.909Z,102238.77
2018-12-27T13:33:22.018Z,102235.48
2018-12-27T13:35:50.316Z,102238.48
2018-12-27T13:38:18.620Z,102237.39
2018-12-27T13:40:46.919Z,102236.27
2018-12-27T13:43:15.228Z,102228.55
2018-12-27T13:45:43.520Z,102227.18
2018-12-27T13:48:11.839Z,102226.63
2018-12-27T13:50:40.138Z,102229.93
2018-12-27T13:53:08.425Z,102224.97
2018-12-27T13:55:36.757Z,102218.92
2018-12-27T13:58:05.248Z,102213.70
2018-12-27T14:00:35.096Z,102224.96
2018-12-27T14:03:03.389Z,102215.88
2018-12-27T14:05:31.696Z,102218.91
2018-12-27T14:07:59.996Z,102220.04
2018-12-27T14:10:28.333Z,102212.87
2018-12-27T14:12:56.630Z,102205.98
2018-12-27T14:15:24.931Z,102205.45
2018-12-27T14:17:53.222Z,102205.16
2018-12-27T14:20:21.529Z,102215.63
2018-12-27T14:22:49.830Z,102209.53
2018-12-27T14:25:18.134Z,102216.99
2018-12-27T14:27:46.438Z,102215.03
2018-12-27T14:30:14.741Z,102216.70
2018-12-27T14:32:43.034Z,102220.04
2018-12-27T14:35:11.335Z,102226.64
2018-12-27T14:37:39.629Z,102221.13
2018-12-27T14:40:48.088Z,102220.84
2018-12-27T14:43:16.363Z,102214.25
2018-12-27T14:45:44.704Z,102215.63
2018-12-27T14:48:13.027Z,102220.04
2018-12-27T14:50:41.331Z,102213.95
2018-12-27T14:53:09.663Z,102218.62
2018-12-27T14:55:37.983Z,102222.74
2018-12-27T14:58:06.278Z,102222.16
2018-12-27T15:00:34.587Z,102226.28
2018-12-27T15:03:22.308Z,102225.44
2018-12-27T15:05:50.635Z,102221.27
2018-12-27T15:08:18.929Z,102227.62
2018-12-27T15:10:47.260Z,102225.16
2018-12-27T15:13:15.555Z,102224.91
2018-12-27T15:15:43.872Z,102226.28
2018-12-27T15:18:12.162Z,102224.33
2018-12-27T15:20:40.496Z,102225.45
2018-12-27T15:23:08.817Z,102226.30
2018-12-27T15:25:56.590Z,102216.94
2018-12-27T15:28:24.911Z,102220.25
2018-12-27T15:30:53.219Z,102228.80
2018-12-27T15:33:21.526Z,102224.66
2018-12-27T15:35:49.845Z,102226.87
2018-12-27T15:38:18.145Z,102222.75
2018-12-27T15:40:46.469Z,102219.46
2018-12-27T15:43:14.827Z,102225.55
2018-12-27T15:45:43.143Z,102227.47
2018-12-27T15:48:11.437Z,102231.02
2018-12-27T15:50:59.181Z,102228.55
2018-12-27T15:53:27.495Z,102229.39
2018-12-27T15:55:55.826Z,102230.77
2018-12-27T15:58:24.127Z,102230.77
2018-12-27T16:00:52.454Z,102225.55
2018-12-27T16:03:20.747Z,102233.52
2018-12-27T16:05:49.054Z,102228.30
2018-12-27T16:08:17.347Z,102230.52
2018-12-27T16:10:45.661Z,102229.68
2018-12-27T16:13:13.961Z,102217.58
2018-12-27T16:15:42.269Z,102225.30
2018-12-27T16:18:10.570Z,102228.31
2018-12-27T16:20:38.891Z,102231.06
2018-12-27T16:23:07.197Z,102226.09
2018-12-27T16:25:35.489Z,102223.89
2018-12-27T16:28:03.796Z,102219.50
2018-12-27T16:30:32.087Z,102219.75
2018-12-27T16:33:00.402Z,102218.37
2018-12-27T16:35:28.723Z,102215.88
2018-12-27T16:37:57.026Z,102215.33
2018-12-27T16:40:25.323Z,102216.45
2018-12-27T16:42:53.655Z,102212.03
2018-12-27T16:45:21.927Z,102220.30
2018-12-27T16:47:50.237Z,102221.67
2018-12-27T16:50:18.551Z,102219.20
2018-12-27T16:52:46.863Z,102216.70
2018-12-27T16:55:15.156Z,102223.59
2018-12-27T16:57:43.467Z,102222.75
2018-12-27T17:00:11.783Z,102221.67
2018-12-27T17:02:40.092Z,102221.95
2018-12-27T17:05:08.380Z,102219.75
2018-12-27T17:07:36.707Z,102218.88
2018-12-27T17:13:18.732Z,102218.08
2018-12-27T17:15:47.034Z,102217.00
2018-12-27T17:18:15.342Z,102212.58
2018-12-27T17:20:43.650Z,102214.50
2018-12-27T17:23:11.960Z,102209.82
2018-12-27T17:25:40.255Z,102210.36
2018-12-27T17:28:08.578Z,102205.70
2018-12-27T17:30:36.895Z,102206.82
2018-12-27T17:33:05.227Z,102202.40
2018-12-27T17:35:33.542Z,102204.61
2018-12-27T17:38:01.850Z,102209.28
2018-12-27T17:40:30.142Z,102207.11
2018-12-27T17:42:58.449Z,102204.36
2018-12-27T17:45:26.764Z,102211.83
2018-12-27T17:47:55.066Z,102204.13
2018-12-27T17:50:23.359Z,102205.53
2018-12-27T17:52:51.667Z,102207.74
2018-12-27T17:55:19.980Z,102208.55
2018-12-27T17:57:48.289Z,102206.91
2018-12-27T18:00:16.584Z,102209.92
2018-12-27T18:02:44.895Z,102203.33
2018-12-27T18:05:13.208Z,102211.58
2018-12-27T18:07:41.544Z,102215.71
2018-12-27T18:10:09.845Z,102213.50
2018-12-27T18:12:38.148Z,102217.92
2018-12-27T18:15:46.553Z,102219.27
2018-12-27T18:18:14.865Z,102226.97
2018-12-27T18:20:43.180Z,102228.31
2018-12-27T18:23:11.484Z,102228.89
2018-12-27T18:25:39.776Z,102233.85
2018-12-27T18:28:08.115Z,102228.35
2018-12-27T18:30:36.407Z,102232.48
2018-12-27T18:33:04.716Z,102230.27
2018-12-27T18:35:33.030Z,102234.69
2018-12-27T18:38:01.335Z,102225.88
2018-12-27T18:40:29.627Z,102228.89
2018-12-27T18:42:57.964Z,102236.86
2018-12-27T18:45:26.279Z,102234.39
2018-12-27T18:47:54.588Z,102235.19
2018-12-27T18:50:22.904Z,102236.31
2018-12-27T18:52:51.209Z,102235.19
2018-12-27T18:55:20.182Z,102228.59
2018-12-27T18:57:49.535Z,102233.27
2018-12-27T19:00:17.860Z,102237.36
2018-12-27T19:02:46.156Z,102235.44
2018-12-27T19:05:14.487Z,102234.06
2018-12-27T19:07:45.132Z,102238.19
2018-12-27T19:10:12.834Z,102236.56
2018-12-27T19:13:19.957Z,102232.98
2018-12-27T19:16:28.386Z,102240.41
2018-12-27T19:18:56.689Z,102237.40
2018-12-27T19:21:24.995Z,102237.69
2018-12-27T19:23:53.312Z,102251.45
2018-12-27T19:26:21.608Z,102244.57
2018-12-27T19:28:49.914Z,102242.08
2018-12-27T19:31:18.278Z,102236.02
2018-12-27T19:33:46.568Z,102239.57
2018-12-27T19:36:14.926Z,102238.20
2018-12-27T19:38:43.161Z,102243.16
2018-12-27T19:41:11.479Z,102249.75
2018-12-27T19:43:39.780Z,102253.33
2018-12-27T19:46:08.091Z,102259.09
2018-12-27T19:48:36.387Z,102257.21
2018-12-27T19:51:04.703Z,102266.02
2018-12-27T19:53:33.004Z,102261.30
2018-12-27T19:56:01.314Z,102265.18
2018-12-27T19:58:29.612Z,102260.52
2018-12-27T20:00:57.922Z,102266.85
2018-12-27T20:03:26.238Z,102261.89
2018-12-27T20:05:54.546Z,102257.76
2018-12-27T20:08:22.864Z,102248.38
2018-12-27T20:10:51.173Z,102246.20
2018-12-27T20:13:19.475Z,102240.11
2018-12-27T20:15:47.782Z,102232.39
2018-12-27T20:18:16.094Z,102237.91
2018-12-27T20:20:44.407Z,102245.91
2018-12-27T20:23:12.702Z,102248.38
2018-12-27T20:25:41.011Z,102251.16
2018-12-27T20:28:09.332Z,102252.80
2018-12-27T20:30:37.643Z,102250.34
2018-12-27T20:33:05.960Z,102249.25
2018-12-27T20:35:34.280Z,102252.54
2018-12-27T20:38:06.591Z,102242.62
2018-12-27T20:40:32.611Z,102241.53
2018-12-27T20:43:00.908Z,102230.52
2018-12-27T20:45:29.223Z,102238.48
2018-12-27T20:47:57.514Z,102241.77
2018-12-27T20:50:25.821Z,102233.23
2018-12-27T20:52:54.110Z,102231.30
2018-12-27T20:55:22.417Z,102225.21
2018-12-27T20:57:50.715Z,102229.63
2018-12-27T21:00:19.051Z,102226.30
2018-12-27T21:02:47.352Z,102222.16
2018-12-27T21:05:15.664Z,102224.08
2018-12-27T21:07:43.957Z,102217.78
2018-12-27T21:10:12.283Z,102214.20
2018-12-27T21:12:40.606Z,102217.23
2018-12-27T21:15:08.920Z,102215.57
2018-12-27T21:17:37.236Z,102219.45
2018-12-27T21:20:45.650Z,102219.45
2018-12-27T21:23:13.964Z,102217.28
2018-12-27T21:25:42.291Z,102211.23
2018-12-27T21:28:10.608Z,102210.95
2018-12-27T21:30:38.914Z,102211.20
2018-12-27T21:33:07.206Z,102207.36
2018-12-27T21:35:35.536Z,102201.02
2018-12-27T21:38:03.854Z,102205.98
2018-12-27T21:40:32.158Z,102205.70
2018-12-27T21:43:00.473Z,102201.60
2018-12-27T21:45:28.791Z,102201.56
2018-12-27T21:47:57.098Z,102206.52
2018-12-27T21:50:25.390Z,102210.12
2018-12-27T21:52:53.699Z,102206.53
2018-12-27T21:55:22.113Z,102209.87
2018-12-27T21:57:50.452Z,102204.66
2018-12-27T22:00:18.751Z,102207.95
2018-12-27T22:02:47.056Z,102208.78
2018-12-27T22:05:15.350Z,102210.99
2018-12-27T22:07:43.663Z,102220.89
2018-12-27T22:10:11.961Z,102221.17
2018-12-27T22:12:40.271Z,102223.09
2018-12-27T22:15:08.560Z,102223.05
2018-12-27T22:17:36.885Z,102220.84
2018-12-27T22:20:05.181Z,102221.08
2018-12-27T22:22:33.490Z,102221.13
2018-12-27T22:25:01.807Z,102224.72
2018-12-27T22:27:30.117Z,102224.47
2018-12-27T22:29:58.414Z,102225.27
2018-12-27T22:32:26.751Z,102224.18
2018-12-27T22:34:55.076Z,102222.55
2018-12-27T22:37:23.405Z,102215.38
2018-12-27T22:39:51.704Z,102207.36
2018-12-27T22:42:20.039Z,102207.61
2018-12-27T22:44:48.326Z,102204.06
2018-12-27T22:47:16.632Z,102195.22
2018-12-27T22:49:44.923Z,102190.25
2018-12-27T22:52:13.265Z,102191.67
2018-12-27T22:54:41.560Z,102191.12
2018-12-27T22:57:09.855Z,102187.84
2018-12-27T22:59:38.183Z,102189.22
2018-12-27T23:02:06.535Z,102190.30
2018-12-27T23:04:34.842Z,102196.64
2018-12-27T23:07:03.151Z,102202.98
2018-12-27T23:09:31.463Z,102195.81
2018-12-27T23:11:59.750Z,102199.39
2018-12-27T23:14:28.080Z,102189.22
2018-12-27T23:16:56.377Z,102190.05
2018-12-27T23:19:24.728Z,102200.77
2018-12-27T23:21:53.017Z,102202.98
2018-12-27T23:24:21.325Z,102204.91
2018-12-27T23:26:49.615Z,102207.95
2018-12-27T23:29:17.948Z,102205.73
2018-12-27T23:31:46.243Z,102204.61
2018-12-27T23:34:14.546Z,102205.44
2018-12-27T23:36:42.838Z,102206.52
2018-12-27T23:39:11.146Z,102198.26
2018-12-27T23:41:39.462Z,102204.31
2018-12-27T23:44:07.772Z,102194.12
2018-12-27T23:46:36.064Z,102195.21
2018-12-27T23:49:04.390Z,102196.30
2018-12-27T23:51:32.689Z,102189.95
2018-12-27T23:54:00.999Z,102190.78
2018-12-27T23:56:29.310Z,102184.19
2018-12-27T23:58:57.603Z,102177.31
